createdAt,value
2022-12-08T00:01:40.961Z,94802.25
2022-12-08T00:04:09.871Z,94912.38
2022-12-08T00:06:58.512Z,94900.00
2022-12-08T00:09:37.903Z,94876.13
2022-12-08T00:12:09.892Z,94898.56
2022-12-08T00:14:39.805Z,94871.94
2022-12-08T00:17:10.109Z,94832.69
2022-12-08T00:19:39.224Z,94879.75
2022-12-08T00:22:10.257Z,94876.63
2022-12-08T00:24:40.523Z,94848.09
2022-12-08T00:27:09.866Z,94883.91
2022-12-08T00:29:38.259Z,94877.53
2022-12-08T00:32:07.695Z,94838.81
2022-12-08T00:34:36.349Z,94863.28
2022-12-08T00:37:04.803Z,94869.00
2022-12-08T00:39:34.771Z,94865.72
2022-12-08T00:42:15.935Z,94846.66
2022-12-08T00:44:45.848Z,94867.94
2022-12-08T00:47:15.422Z,94862.72
2022-12-08T00:49:43.881Z,94853.06
2022-12-08T00:52:13.105Z,94862.13
2022-12-08T00:54:42.934Z,94861.19
2022-12-08T00:57:11.705Z,94842.00
2022-12-08T00:59:40.140Z,94831.25
2022-12-08T01:02:08.475Z,94859.25
2022-12-08T01:04:36.800Z,94859.25
2022-12-08T01:07:05.222Z,94844.34
2022-12-08T01:09:33.909Z,94862.53
2022-12-08T01:12:03.697Z,94856.19
2022-12-08T01:14:32.096Z,94837.50
2022-12-08T01:17:00.639Z,94887.66
2022-12-08T01:19:29.032Z,94853.22
2022-12-08T01:21:57.343Z,94844.75
2022-12-08T01:24:25.921Z,94844.59
2022-12-08T01:26:54.372Z,94821.13
2022-12-08T01:29:24.715Z,94811.25
2022-12-08T01:31:53.440Z,94855.72
2022-12-08T01:34:21.768Z,94849.03
2022-12-08T01:36:50.088Z,94776.47
2022-12-08T01:39:19.993Z,94857.50
2022-12-08T01:41:49.230Z,94845.72
2022-12-08T01:44:54.765Z,94844.28
2022-12-08T01:47:26.194Z,94844.50
2022-12-08T01:49:54.648Z,94841.84
2022-12-08T01:52:27.712Z,94827.50
2022-12-08T01:54:59.674Z,94815.09
2022-12-08T01:57:31.353Z,94828.81
2022-12-08T02:00:04.240Z,94820.09
2022-12-08T02:02:40.791Z,94854.44
2022-12-08T02:05:10.974Z,94840.19
2022-12-08T02:07:39.578Z,94766.41
2022-12-08T02:10:09.103Z,94837.59
2022-12-08T02:12:37.523Z,94839.44
2022-12-08T02:15:08.460Z,94735.72
2022-12-08T02:17:50.837Z,94796.69
2022-12-08T02:20:26.970Z,94824.09
2022-12-08T02:23:03.416Z,94821.91
2022-12-08T02:25:43.877Z,94825.06
2022-12-08T02:28:38.819Z,94822.47
2022-12-08T02:31:17.587Z,94831.09
2022-12-08T02:34:14.288Z,94830.44
2022-12-08T02:36:51.426Z,94798.31
2022-12-08T02:39:29.771Z,94792.25
2022-12-08T02:42:08.311Z,94837.84
2022-12-08T02:44:43.049Z,94835.75
2022-12-08T02:47:15.516Z,94821.09
2022-12-08T02:49:45.687Z,94819.50
2022-12-08T02:52:43.423Z,94826.41
2022-12-08T02:55:20.092Z,94806.59
2022-12-08T02:58:21.792Z,94818.78
2022-12-08T03:01:04.070Z,94815.28
2022-12-08T03:03:40.755Z,94792.44
2022-12-08T03:06:19.644Z,94792.59
2022-12-08T03:08:56.783Z,94803.00
2022-12-08T03:11:31.881Z,94811.91
2022-12-08T03:14:04.084Z,94810.56
2022-12-08T03:16:34.963Z,94810.00
2022-12-08T03:19:12.076Z,94807.28
2022-12-08T03:21:43.135Z,94802.09
2022-12-08T03:24:12.458Z,94802.09
2022-12-08T03:26:47.781Z,94796.69
2022-12-08T03:29:16.633Z,94800.34
2022-12-08T03:31:50.973Z,94798.38
2022-12-08T03:34:20.212Z,94771.97
2022-12-08T03:36:49.953Z,94799.53
2022-12-08T03:39:18.405Z,94797.91
2022-12-08T03:41:47.917Z,94799.59
2022-12-08T03:44:16.481Z,94791.97
2022-12-08T03:46:45.960Z,94794.63
2022-12-08T03:49:14.326Z,94803.22
2022-12-08T03:51:42.744Z,94784.63
2022-12-08T03:54:12.567Z,94789.13
2022-12-08T03:56:41.272Z,94786.63
2022-12-08T03:59:10.402Z,94789.72
2022-12-08T04:01:38.989Z,94784.28
2022-12-08T04:04:07.496Z,94782.44
2022-12-08T04:06:35.895Z,94777.94
2022-12-08T04:09:04.754Z,94744.84
2022-12-08T04:11:34.855Z,94764.19
2022-12-08T04:14:03.502Z,94770.31
2022-12-08T04:16:31.976Z,94777.22
2022-12-08T04:19:00.545Z,94766.34
2022-12-08T04:21:29.055Z,94760.56
2022-12-08T04:24:01.088Z,94775.38
2022-12-08T04:26:30.364Z,94758.72
2022-12-08T04:29:00.256Z,94751.53
2022-12-08T04:31:28.874Z,94756.63
2022-12-08T04:33:57.421Z,94760.09
2022-12-08T04:36:25.887Z,94740.22
2022-12-08T04:38:54.300Z,94762.25
2022-12-08T04:41:22.765Z,94756.38
2022-12-08T04:43:51.377Z,94752.44
2022-12-08T04:46:21.242Z,94758.53
2022-12-08T04:48:49.613Z,94724.56
2022-12-08T04:51:19.340Z,94720.06
2022-12-08T04:53:48.857Z,94743.50
2022-12-08T04:56:19.826Z,94749.69
2022-12-08T04:58:48.266Z,94736.09
2022-12-08T05:01:16.668Z,94741.16
2022-12-08T05:03:46.756Z,94737.13
2022-12-08T05:06:16.148Z,94716.31
2022-12-08T05:08:45.196Z,94747.19
2022-12-08T05:11:15.312Z,94744.78
2022-12-08T05:13:43.828Z,94738.97
2022-12-08T05:16:14.835Z,94742.69
2022-12-08T05:18:44.264Z,94738.97
2022-12-08T05:21:13.994Z,94743.72
2022-12-08T05:23:42.376Z,94738.09
2022-12-08T05:26:10.759Z,94736.31
2022-12-08T05:28:42.394Z,94732.06
2022-12-08T05:31:11.573Z,94732.56
2022-12-08T05:33:40.039Z,94725.63
2022-12-08T05:36:09.075Z,94685.41
2022-12-08T05:38:39.005Z,94734.31
2022-12-08T05:41:08.276Z,94717.56
2022-12-08T05:43:36.620Z,94680.34
2022-12-08T05:46:05.154Z,94719.50
2022-12-08T05:48:33.857Z,94713.44
2022-12-08T05:51:02.364Z,94713.13
2022-12-08T05:53:30.764Z,94709.66
2022-12-08T05:56:00.557Z,94706.38
2022-12-08T05:58:28.929Z,94719.63
2022-12-08T06:00:57.235Z,94718.59
2022-12-08T06:03:25.708Z,94720.75
2022-12-08T06:05:54.115Z,94722.56
2022-12-08T06:08:22.527Z,94718.69
2022-12-08T06:10:51.053Z,94726.75
2022-12-08T06:13:20.877Z,94711.38
2022-12-08T06:15:49.233Z,94704.63
2022-12-08T06:18:17.567Z,94711.31
2022-12-08T06:20:45.952Z,94710.81
2022-12-08T06:23:14.481Z,94706.59
2022-12-08T06:25:42.919Z,94702.59
2022-12-08T06:28:11.229Z,94691.63
2022-12-08T06:30:40.992Z,94705.50
2022-12-08T06:33:09.387Z,94698.53
2022-12-08T06:35:38.738Z,94706.31
2022-12-08T06:38:07.113Z,94705.09
2022-12-08T06:40:35.418Z,94702.91
2022-12-08T06:43:03.827Z,94669.00
2022-12-08T06:45:32.364Z,94707.09
2022-12-08T06:48:02.934Z,94708.72
2022-12-08T06:50:32.754Z,94707.41
2022-12-08T06:53:05.256Z,94716.13
2022-12-08T06:58:23.403Z,94712.91
2022-12-08T07:00:51.968Z,94726.28
2022-12-08T07:03:21.807Z,94713.53
2022-12-08T07:05:50.182Z,94703.34
2022-12-08T07:08:18.622Z,94724.34
2022-12-08T07:10:46.913Z,94728.50
2022-12-08T07:13:15.233Z,94723.28
2022-12-08T07:15:43.584Z,94720.38
2022-12-08T07:18:11.940Z,94706.53
2022-12-08T07:20:41.734Z,94719.88
2022-12-08T07:23:10.041Z,94694.78
2022-12-08T07:25:38.461Z,94707.00
2022-12-08T07:28:11.394Z,94712.09
2022-12-08T07:30:40.464Z,94708.44
2022-12-08T07:33:09.256Z,94706.50
2022-12-08T07:35:38.159Z,94704.81
2022-12-08T07:38:12.119Z,94705.03
2022-12-08T07:40:40.794Z,94709.00
2022-12-08T07:43:09.171Z,94714.00
2022-12-08T07:45:37.465Z,94717.94
2022-12-08T07:48:06.760Z,94707.69
2022-12-08T07:50:35.141Z,94715.13
2022-12-08T07:53:03.588Z,94709.56
2022-12-08T07:55:34.080Z,94706.41
2022-12-08T07:58:02.469Z,94709.28
2022-12-08T08:00:30.957Z,94701.03
2022-12-08T08:02:59.604Z,94663.81
2022-12-08T08:05:28.183Z,94710.34
2022-12-08T08:07:56.562Z,94711.22
2022-12-08T08:10:25.031Z,94694.34
2022-12-08T08:12:54.905Z,94716.53
2022-12-08T08:15:23.300Z,94714.16
2022-12-08T08:17:52.733Z,94706.97
2022-12-08T08:20:22.121Z,94711.56
2022-12-08T08:22:52.275Z,94707.78
2022-12-08T08:25:23.201Z,94704.22
2022-12-08T08:27:51.788Z,94707.91
2022-12-08T08:30:21.890Z,94695.25
2022-12-08T08:32:51.181Z,94656.34
2022-12-08T08:35:20.052Z,94695.13
2022-12-08T08:37:49.547Z,94695.06
2022-12-08T08:40:18.647Z,94698.06
2022-12-08T08:42:46.957Z,94682.19
2022-12-08T08:45:15.304Z,94710.19
2022-12-08T08:47:45.953Z,94710.75
2022-12-08T08:50:14.425Z,94709.69
2022-12-08T08:52:42.747Z,94687.69
2022-12-08T08:55:11.472Z,94701.78
2022-12-08T08:57:40.453Z,94702.41
2022-12-08T09:00:10.875Z,94695.03
2022-12-08T09:02:39.579Z,94683.16
2022-12-08T09:05:10.224Z,94702.09
2022-12-08T09:07:38.689Z,94697.88
2022-12-08T09:10:08.967Z,94703.34
2022-12-08T09:12:37.441Z,94703.16
2022-12-08T09:15:06.607Z,94624.63
2022-12-08T09:17:34.998Z,94692.91
2022-12-08T09:20:03.814Z,94647.88
2022-12-08T09:22:33.946Z,94699.59
2022-12-08T09:25:02.263Z,94698.06
2022-12-08T09:27:30.707Z,94656.47
2022-12-08T09:29:59.091Z,94674.97
2022-12-08T09:32:27.649Z,94715.53
2022-12-08T09:34:56.220Z,94687.06
2022-12-08T09:37:24.527Z,94685.72
2022-12-08T09:39:54.406Z,94690.94
2022-12-08T09:42:35.524Z,94684.09
2022-12-08T09:45:07.477Z,94687.28
2022-12-08T09:47:41.251Z,94693.25
2022-12-08T09:50:14.317Z,94688.50
2022-12-08T09:52:46.612Z,94686.69
2022-12-08T09:55:23.884Z,94680.94
2022-12-08T09:58:02.044Z,94679.91
2022-12-08T10:00:30.558Z,94605.19
2022-12-08T10:03:00.190Z,94669.84
2022-12-08T10:05:33.700Z,94673.31
2022-12-08T10:08:10.034Z,94673.88
2022-12-08T10:10:44.767Z,94662.44
2022-12-08T10:13:21.091Z,94645.38
2022-12-08T10:15:59.023Z,94614.69
2022-12-08T10:18:30.544Z,94652.50
2022-12-08T10:21:06.543Z,94649.66
2022-12-08T10:23:37.996Z,94656.72
2022-12-08T10:26:12.735Z,94664.66
2022-12-08T10:28:44.827Z,94664.66
2022-12-08T10:31:23.778Z,94647.03
2022-12-08T10:33:59.346Z,94656.19
2022-12-08T10:36:47.409Z,94650.34
2022-12-08T10:39:33.106Z,94651.16
2022-12-08T10:42:10.456Z,94645.56
2022-12-08T10:44:51.636Z,94642.41
2022-12-08T10:47:23.287Z,94644.19
2022-12-08T10:50:08.595Z,94636.75
2022-12-08T10:52:40.437Z,94614.66
2022-12-08T10:55:17.014Z,94621.97
2022-12-08T10:57:49.130Z,94628.41
2022-12-08T11:00:19.788Z,94611.13
2022-12-08T11:03:00.244Z,94589.75
2022-12-08T11:05:33.936Z,94615.34
2022-12-08T11:08:03.158Z,94608.44
2022-12-08T11:10:36.946Z,94599.19
2022-12-08T11:13:13.001Z,94598.00
2022-12-08T11:15:42.344Z,94599.13
2022-12-08T11:18:23.702Z,94557.16
2022-12-08T11:21:02.537Z,94601.81
2022-12-08T11:23:32.374Z,94585.09
2022-12-08T11:26:07.429Z,94561.75
2022-12-08T11:28:37.800Z,94608.13
2022-12-08T11:31:14.260Z,94590.84
2022-12-08T11:33:44.314Z,94582.59
2022-12-08T11:36:16.911Z,94580.25
2022-12-08T11:38:48.841Z,94585.03
2022-12-08T11:41:20.381Z,94570.31
2022-12-08T11:43:55.574Z,94579.22
2022-12-08T11:46:27.470Z,94553.28
2022-12-08T11:49:05.940Z,94574.41
2022-12-08T11:51:38.758Z,94553.16
2022-12-08T11:54:17.351Z,94579.19
2022-12-08T11:56:49.392Z,94559.44
2022-12-08T11:59:28.335Z,94582.38
2022-12-08T12:01:57.091Z,94569.75
2022-12-08T12:04:31.037Z,94570.56
2022-12-08T12:07:40.680Z,94576.44
2022-12-08T12:10:28.032Z,94572.34
2022-12-08T12:13:17.055Z,94568.22
2022-12-08T12:16:40.536Z,94562.72
2022-12-08T12:19:15.411Z,94566.72
2022-12-08T12:21:46.953Z,94539.78
2022-12-08T12:24:25.454Z,94563.81
2022-12-08T12:27:00.003Z,94576.44
2022-12-08T12:29:31.520Z,94571.84
2022-12-08T12:32:04.970Z,94572.94
2022-12-08T12:34:36.636Z,94533.94
2022-12-08T12:37:10.471Z,94555.53
2022-12-08T12:39:51.631Z,94579.56
2022-12-08T12:42:42.976Z,94571.28
2022-12-08T12:45:28.489Z,94578.25
2022-12-08T12:48:22.768Z,94575.34
2022-12-08T12:50:51.155Z,94568.25
2022-12-08T12:53:51.958Z,94576.06
2022-12-08T12:56:48.780Z,94568.25
2022-12-08T12:59:33.563Z,94576.22
2022-12-08T13:02:02.789Z,94571.88
2022-12-08T13:04:37.359Z,94566.28
2022-12-08T13:07:06.846Z,94567.41
2022-12-08T13:09:39.318Z,94566.59
2022-12-08T13:12:13.045Z,94577.00
2022-12-08T13:14:47.198Z,94572.63
2022-12-08T13:17:24.491Z,94569.56
2022-12-08T13:19:58.464Z,94577.50
2022-12-08T13:23:03.650Z,94561.88
2022-12-08T13:26:09.703Z,94537.44
2022-12-08T13:29:16.406Z,94567.22
2022-12-08T13:31:50.942Z,94562.06
2022-12-08T13:34:31.455Z,94555.63
2022-12-08T13:37:22.060Z,94559.66
2022-12-08T13:39:55.198Z,94561.41
2022-12-08T13:42:31.242Z,94558.75
2022-12-08T13:45:39.631Z,94554.13
2022-12-08T13:48:30.210Z,94559.72
2022-12-08T13:52:59.993Z,94562.31
2022-12-08T13:57:03.029Z,94558.97
2022-12-08T13:59:31.301Z,94570.19
2022-12-08T14:02:04.171Z,94556.44
2022-12-08T14:05:17.011Z,94571.94
2022-12-08T14:07:21.859Z,94576.31
2022-12-08T14:09:52.892Z,94575.25
2022-12-08T14:12:23.688Z,94579.16
2022-12-08T14:15:03.292Z,94539.59
2022-12-08T14:17:32.430Z,94568.69
2022-12-08T14:20:02.594Z,94570.72
2022-12-08T14:22:35.852Z,94569.44
2022-12-08T14:25:08.579Z,94560.41
2022-12-08T14:27:38.758Z,94570.69
2022-12-08T14:30:09.312Z,94566.72
2022-12-08T14:32:44.349Z,94572.66
2022-12-08T14:35:23.973Z,94563.69
2022-12-08T14:37:55.610Z,94574.28
2022-12-08T14:40:29.248Z,94583.28
2022-12-08T14:43:13.827Z,94580.09
2022-12-08T14:45:49.237Z,94578.78
2022-12-08T14:48:25.589Z,94584.31
2022-12-08T14:51:09.001Z,94581.66
2022-12-08T14:53:41.001Z,94524.41
2022-12-08T14:56:20.240Z,94579.88
2022-12-08T14:58:50.467Z,94573.75
2022-12-08T15:01:23.703Z,94579.63
2022-12-08T15:03:52.556Z,94575.84
2022-12-08T15:06:23.495Z,94545.72
2022-12-08T15:08:58.884Z,94575.31
2022-12-08T15:11:37.192Z,94575.81
2022-12-08T15:14:05.664Z,94581.84
2022-12-08T15:16:40.760Z,94546.34
2022-12-08T15:19:27.841Z,94587.97
2022-12-08T15:21:58.267Z,94570.31
2022-12-08T15:24:29.517Z,94591.25
2022-12-08T15:26:59.508Z,94596.53
2022-12-08T15:29:31.150Z,94590.44
2022-12-08T15:32:01.616Z,94591.56
2022-12-08T15:34:31.717Z,94595.66
2022-12-08T15:37:00.127Z,94582.66
2022-12-08T15:39:37.440Z,94565.59
2022-12-08T15:42:14.042Z,94602.09
2022-12-08T15:44:42.850Z,94600.72
2022-12-08T15:47:18.036Z,94593.53
2022-12-08T15:49:47.312Z,94598.06
2022-12-08T15:52:17.750Z,94598.38
2022-12-08T15:54:46.883Z,94604.00
2022-12-08T16:00:51.842Z,94588.91
2022-12-08T16:07:26.840Z,94594.72
2022-12-08T16:09:12.453Z,94595.59
2022-12-08T16:12:06.573Z,94588.72
2022-12-08T16:17:27.606Z,94587.69
2022-12-08T16:19:56.589Z,94589.59
2022-12-08T16:25:20.412Z,94588.88
2022-12-08T16:28:23.612Z,94588.72
2022-12-08T16:30:41.251Z,94587.91
2022-12-08T16:33:10.943Z,94598.25
2022-12-08T16:35:39.437Z,94577.56
2022-12-08T16:38:07.753Z,94589.53
2022-12-08T16:40:56.988Z,94596.97
2022-12-08T16:43:24.348Z,94566.72
2022-12-08T16:45:54.112Z,94597.00
2022-12-08T16:48:22.976Z,94577.00
2022-12-08T16:50:51.425Z,94570.25
2022-12-08T16:53:19.743Z,94596.53
2022-12-08T16:55:48.990Z,94561.41
2022-12-08T16:58:18.641Z,94598.38
2022-12-08T17:00:47.746Z,94624.13
2022-12-08T17:03:18.602Z,94599.19
2022-12-08T17:05:47.082Z,94593.53
2022-12-08T17:08:15.436Z,94554.00
2022-12-08T17:10:44.050Z,94563.34
2022-12-08T17:13:13.239Z,94601.41
2022-12-08T17:15:41.733Z,94595.84
2022-12-08T17:18:10.096Z,94576.50
2022-12-08T17:20:41.154Z,94571.75
2022-12-08T17:23:09.604Z,94525.53
2022-12-08T17:25:38.274Z,94585.72
2022-12-08T17:28:06.858Z,94587.88
2022-12-08T17:30:35.285Z,94582.25
2022-12-08T17:33:03.638Z,94592.63
2022-12-08T17:35:32.042Z,94584.16
2022-12-08T17:38:01.799Z,94584.72
2022-12-08T17:40:30.171Z,94587.38
2022-12-08T17:42:58.541Z,94585.75
2022-12-08T17:45:26.863Z,94486.81
2022-12-08T17:47:55.490Z,94583.16
2022-12-08T17:50:24.073Z,94593.78
2022-12-08T17:52:52.909Z,94596.56
2022-12-08T17:55:22.840Z,94593.41
2022-12-08T17:57:51.234Z,94593.88
2022-12-08T18:00:20.649Z,94369.13
2022-12-08T18:02:49.165Z,94596.09
2022-12-08T18:05:17.679Z,94592.06
2022-12-08T18:07:46.078Z,94599.50
2022-12-08T18:10:14.528Z,94600.84
2022-12-08T18:12:45.320Z,94624.28
2022-12-08T18:15:17.637Z,94575.88
2022-12-08T18:17:46.035Z,94595.97
2022-12-08T18:20:15.813Z,94594.66
2022-12-08T18:22:44.196Z,94594.41
2022-12-08T18:25:13.511Z,94592.94
2022-12-08T18:27:44.247Z,94600.03
2022-12-08T18:30:17.324Z,94601.66
2022-12-08T18:32:45.708Z,94563.63
2022-12-08T18:35:14.434Z,94585.03
2022-12-08T18:37:44.374Z,94595.47
2022-12-08T18:40:13.898Z,94607.41
2022-12-08T18:42:44.204Z,94595.97
2022-12-08T18:45:15.705Z,94596.16
2022-12-08T18:47:46.016Z,94594.53
2022-12-08T18:50:14.697Z,94584.88
2022-12-08T18:52:43.171Z,94594.75
2022-12-08T18:55:11.771Z,94597.63
2022-12-08T18:57:42.792Z,94577.25
2022-12-08T19:00:17.044Z,94570.31
2022-12-08T19:02:46.286Z,94582.66
2022-12-08T19:05:16.015Z,94586.06
2022-12-08T19:07:45.962Z,94607.28
2022-12-08T19:10:14.464Z,94604.81
2022-12-08T19:12:43.196Z,94581.00
2022-12-08T19:15:13.657Z,94613.72
2022-12-08T19:17:42.061Z,94554.50
2022-12-08T19:20:11.872Z,94604.94
2022-12-08T19:22:41.560Z,94607.31
2022-12-08T19:25:13.193Z,94604.66
2022-12-08T19:27:42.929Z,94606.84
2022-12-08T19:30:15.465Z,94587.66
2022-12-08T19:32:45.190Z,94590.09
2022-12-08T19:35:15.587Z,94583.66
2022-12-08T19:37:45.167Z,94606.94
2022-12-08T19:40:32.737Z,94607.91
2022-12-08T19:43:19.303Z,94606.22
2022-12-08T19:45:50.875Z,94610.69
2022-12-08T19:48:21.115Z,94614.69
2022-12-08T19:50:51.130Z,94611.28
2022-12-08T19:53:21.497Z,94596.28
2022-12-08T19:55:51.303Z,94602.59
2022-12-08T19:58:21.398Z,94614.25
2022-12-08T20:00:53.593Z,94596.78
2022-12-08T20:03:24.338Z,94597.31
2022-12-08T20:05:55.080Z,94592.75
2022-12-08T20:08:24.842Z,94604.44
2022-12-08T20:10:56.616Z,94578.09
2022-12-08T20:13:46.604Z,94600.00
2022-12-08T20:16:19.062Z,94600.91
2022-12-08T20:18:50.581Z,94528.22
2022-12-08T20:21:20.538Z,94579.31
2022-12-08T20:23:50.600Z,94607.75
2022-12-08T20:26:22.224Z,94613.56
2022-12-08T20:28:53.673Z,94615.09
2022-12-08T20:31:26.624Z,94619.84
2022-12-08T20:33:56.473Z,94626.78
2022-12-08T20:36:25.991Z,94619.38
2022-12-08T20:38:56.349Z,94624.69
2022-12-08T20:41:24.927Z,94613.50
2022-12-08T20:43:54.134Z,94621.47
2022-12-08T20:46:24.574Z,94613.06
2022-12-08T20:48:53.654Z,94615.72
2022-12-08T20:51:25.679Z,94620.50
2022-12-08T20:53:56.951Z,94615.28
2022-12-08T20:56:26.384Z,94624.81
2022-12-08T20:58:55.735Z,94626.41
2022-12-08T21:01:26.808Z,94630.19
2022-12-08T21:03:56.190Z,94629.16
2022-12-08T21:06:27.035Z,94608.06
2022-12-08T21:08:55.946Z,94594.91
2022-12-08T21:11:24.494Z,94633.50
2022-12-08T21:13:53.420Z,94628.19
2022-12-08T21:16:21.847Z,94631.38
2022-12-08T21:18:52.322Z,94612.41
2022-12-08T21:21:20.829Z,94626.34
2022-12-08T21:23:49.597Z,94630.25
2022-12-08T21:26:19.586Z,94621.25
2022-12-08T21:28:49.224Z,94602.31
2022-12-08T21:31:21.664Z,94625.56
2022-12-08T21:33:51.652Z,94632.84
2022-12-08T21:36:22.939Z,94631.25
2022-12-08T21:38:52.254Z,94631.88
2022-12-08T21:41:42.079Z,94622.88
2022-12-08T21:44:13.473Z,94632.84
2022-12-08T21:46:42.308Z,94628.84
2022-12-08T21:49:12.641Z,94619.41
2022-12-08T21:51:42.541Z,94593.88
2022-12-08T21:54:18.354Z,94597.78
2022-12-08T21:56:49.077Z,94621.53
2022-12-08T21:59:18.128Z,94626.72
2022-12-08T22:01:46.842Z,94617.56
2022-12-08T22:04:21.807Z,94620.97
2022-12-08T22:06:50.452Z,94636.50
2022-12-08T22:09:19.988Z,94628.91
2022-12-08T22:11:48.580Z,94589.44
2022-12-08T22:14:17.113Z,94630.69
2022-12-08T22:16:45.920Z,94625.59
2022-12-08T22:19:14.336Z,94632.53
2022-12-08T22:21:44.723Z,94628.03
2022-12-08T22:24:13.113Z,94620.06
2022-12-08T22:26:41.411Z,94622.22
2022-12-08T22:29:10.341Z,94628.34
2022-12-08T22:31:38.793Z,94631.00
2022-12-08T22:34:07.489Z,94631.50
2022-12-08T22:36:36.390Z,94633.09
2022-12-08T22:39:06.643Z,94609.28
2022-12-08T22:41:35.100Z,94631.38
2022-12-08T22:44:06.689Z,94509.59
2022-12-08T22:46:35.894Z,94620.59
2022-12-08T22:49:05.176Z,94619.03
2022-12-08T22:51:36.357Z,94618.53
2022-12-08T22:54:06.850Z,94622.78
2022-12-08T22:56:35.520Z,94619.31
2022-12-08T22:59:04.033Z,94624.94
2022-12-08T23:01:34.143Z,94625.75
2022-12-08T23:04:03.913Z,94620.69
2022-12-08T23:06:33.800Z,94582.59
2022-12-08T23:09:02.368Z,94632.59
2022-12-08T23:11:32.789Z,94627.06
2022-12-08T23:14:02.099Z,94598.91
2022-12-08T23:16:33.591Z,94590.56
2022-12-08T23:19:02.288Z,94628.09
2022-12-08T23:21:31.142Z,94634.97
2022-12-08T23:24:01.160Z,94628.25
2022-12-08T23:26:33.266Z,94621.31
2022-12-08T23:29:02.163Z,94626.34
2022-12-08T23:31:30.832Z,94606.03
2022-12-08T23:33:59.552Z,94618.38
2022-12-08T23:36:28.101Z,94615.28
2022-12-08T23:38:57.190Z,94612.03
2022-12-08T23:41:25.479Z,94595.41
2022-12-08T23:43:55.448Z,94612.25
2022-12-08T23:46:24.727Z,94616.28
2022-12-08T23:48:53.779Z,94589.44
2022-12-08T23:51:22.841Z,94578.06
2022-12-08T23:53:51.411Z,94608.63
2022-12-08T23:56:23.178Z,94565.88
2022-12-08T23:58:55.823Z,94587.94
